createdAt,value
2023-05-25T00:00:18.448Z,1019.04
2023-05-25T00:01:18.471Z,1019.04
2023-05-25T00:02:18.527Z,1019.06
2023-05-25T00:03:18.632Z,1019.08
2023-05-25T00:04:18.686Z,1019.05
2023-05-25T00:05:18.601Z,1019.07
2023-05-25T00:06:18.639Z,1019.08
2023-05-25T00:07:18.666Z,1019.08
2023-05-25T00:08:18.691Z,1019.11
2023-05-25T00:09:18.728Z,1019.06
2023-05-25T00:10:18.758Z,1019.09
2023-05-25T00:11:18.790Z,1019.13
2023-05-25T00:12:18.825Z,1019.07
2023-05-25T00:13:18.897Z,1019.06
2023-05-25T00:14:18.889Z,1019.05
2023-05-25T00:15:18.928Z,1019.09
2023-05-25T00:16:18.951Z,1019.09
2023-05-25T00:17:19.030Z,1019.07
2023-05-25T00:18:19.078Z,1019.08
2023-05-25T00:19:19.042Z,1019.09
2023-05-25T00:20:19.097Z,1019.11
2023-05-25T00:21:19.121Z,1019.09
2023-05-25T00:22:19.142Z,1019.09
2023-05-25T00:23:19.178Z,1019.08
2023-05-25T00:24:19.199Z,1019.10
2023-05-25T00:25:19.228Z,1019.09
2023-05-25T00:26:19.264Z,1019.09
2023-05-25T00:27:19.295Z,1019.07
2023-05-25T00:28:19.336Z,1019.07
2023-05-25T00:29:19.360Z,1019.09
2023-05-25T00:30:19.394Z,1019.10
2023-05-25T00:31:19.467Z,1019.08
2023-05-25T00:32:19.483Z,1019.11
2023-05-25T00:33:19.493Z,1019.09
2023-05-25T00:34:19.532Z,1019.09
2023-05-25T00:35:19.568Z,1019.11
2023-05-25T00:36:19.609Z,1019.09
2023-05-25T00:37:19.620Z,1019.10
2023-05-25T00:38:19.655Z,1019.08
2023-05-25T00:39:19.680Z,1019.03
2023-05-25T00:40:19.727Z,1019.05
2023-05-25T00:41:19.772Z,1019.01
2023-05-25T00:42:19.776Z,1018.99
2023-05-25T00:43:19.806Z,1019.03
2023-05-25T00:44:19.841Z,1019.04
2023-05-25T00:45:19.865Z,1019.04
2023-05-25T00:46:19.926Z,1019.03
2023-05-25T00:47:19.932Z,1019.05
2023-05-25T00:48:19.961Z,1019.02
2023-05-25T00:49:20.002Z,1019.01
2023-05-25T00:50:20.029Z,1019.03
2023-05-25T00:51:20.061Z,1019.00
2023-05-25T00:52:20.089Z,1019.02
2023-05-25T00:53:20.124Z,1019.00
2023-05-25T00:54:20.159Z,1019.00
2023-05-25T00:55:20.194Z,1019.04
2023-05-25T00:56:20.220Z,1019.04
2023-05-25T00:57:20.256Z,1019.02
2023-05-25T00:58:20.280Z,1019.03
2023-05-25T00:59:20.316Z,1019.00
2023-05-25T01:00:20.344Z,1019.00
2023-05-25T01:01:20.465Z,1018.99
2023-05-25T01:02:20.532Z,1018.95
2023-05-25T01:03:20.494Z,1018.96
2023-05-25T01:04:20.460Z,1018.95
2023-05-25T01:05:20.496Z,1018.95
2023-05-25T01:06:20.539Z,1018.97
2023-05-25T01:07:20.555Z,1018.98
2023-05-25T01:08:20.586Z,1018.96
2023-05-25T01:09:20.616Z,1019.00
2023-05-25T01:10:20.655Z,1018.99
2023-05-25T01:11:20.693Z,1018.98
2023-05-25T01:12:20.714Z,1018.98
2023-05-25T01:13:20.752Z,1018.98
2023-05-25T01:14:20.778Z,1018.95
2023-05-25T01:15:20.849Z,1018.99
2023-05-25T01:16:20.908Z,1018.95
2023-05-25T01:17:20.945Z,1018.94
2023-05-25T01:18:20.912Z,1018.96
2023-05-25T01:19:20.935Z,1018.98
2023-05-25T01:20:21.006Z,1018.98
2023-05-25T01:21:21.015Z,1019.00
2023-05-25T01:22:21.059Z,1018.99
2023-05-25T01:23:21.117Z,1019.00
2023-05-25T01:24:21.094Z,1019.00
2023-05-25T01:25:21.134Z,1019.03
2023-05-25T01:26:21.172Z,1018.99
2023-05-25T01:27:21.188Z,1019.02
2023-05-25T01:28:21.231Z,1019.01
2023-05-25T01:29:21.259Z,1019.03
2023-05-25T01:30:21.289Z,1019.00
2023-05-25T01:31:21.344Z,1019.01
2023-05-25T01:32:21.411Z,1019.03
2023-05-25T01:33:21.376Z,1019.02
2023-05-25T01:34:21.413Z,1019.06
2023-05-25T01:35:21.448Z,1019.04
2023-05-25T01:36:21.508Z,1019.01
2023-05-25T01:37:21.550Z,1019.04
2023-05-25T01:38:21.537Z,1019.04
2023-05-25T01:39:21.582Z,1019.06
2023-05-25T01:40:21.599Z,1019.07
2023-05-25T01:41:21.636Z,1019.06
2023-05-25T01:42:21.713Z,1019.08
2023-05-25T01:43:21.689Z,1019.10
2023-05-25T01:44:21.720Z,1019.07
2023-05-25T01:45:21.751Z,1019.06
2023-05-25T01:46:21.797Z,1019.06
2023-05-25T01:47:21.812Z,1019.08
2023-05-25T01:48:21.846Z,1019.08
2023-05-25T01:49:21.890Z,1019.09
2023-05-25T01:50:21.912Z,1019.09
2023-05-25T01:51:21.944Z,1019.04
2023-05-25T01:52:22.003Z,1019.07
2023-05-25T01:53:22.006Z,1019.06
2023-05-25T01:54:22.038Z,1019.04
2023-05-25T01:55:22.067Z,1019.03
2023-05-25T01:56:22.109Z,1019.00
2023-05-25T01:57:22.125Z,1019.01
2023-05-25T01:58:22.164Z,1018.97
2023-05-25T01:59:22.196Z,1019.02
2023-05-25T02:00:22.227Z,1018.97
2023-05-25T02:01:22.284Z,1019.00
2023-05-25T02:02:22.308Z,1019.01
2023-05-25T02:03:22.322Z,1018.97
2023-05-25T02:04:22.420Z,1019.03
2023-05-25T02:05:22.403Z,1019.00
2023-05-25T02:06:22.409Z,1018.99
2023-05-25T02:07:22.445Z,1019.02
2023-05-25T02:08:22.484Z,1018.98
2023-05-25T02:09:22.509Z,1018.96
2023-05-25T02:10:22.535Z,1018.99
2023-05-25T02:11:22.572Z,1018.96
2023-05-25T02:12:22.605Z,1018.94
2023-05-25T02:13:22.633Z,1018.93
2023-05-25T02:14:22.673Z,1018.94
2023-05-25T02:15:22.697Z,1018.90
2023-05-25T02:16:22.766Z,1018.91
2023-05-25T02:17:22.822Z,1018.92
2023-05-25T02:18:22.808Z,1018.93
2023-05-25T02:19:22.833Z,1018.94
2023-05-25T02:20:22.865Z,1018.96
2023-05-25T02:21:22.900Z,1018.96
2023-05-25T02:22:22.926Z,1018.96
2023-05-25T02:23:22.956Z,1018.96
2023-05-25T02:24:22.988Z,1019.03
2023-05-25T02:25:23.010Z,1018.98
2023-05-25T02:26:23.074Z,1019.05
2023-05-25T02:27:23.075Z,1019.03
2023-05-25T02:28:23.109Z,1019.02
2023-05-25T02:29:23.162Z,1019.09
2023-05-25T02:30:23.184Z,1019.10
2023-05-25T02:31:23.225Z,1019.10
2023-05-25T02:32:23.289Z,1019.12
2023-05-25T02:33:23.261Z,1019.11
2023-05-25T02:34:23.303Z,1019.17
2023-05-25T02:35:23.323Z,1019.10
2023-05-25T02:36:23.355Z,1019.16
2023-05-25T02:37:23.394Z,1019.14
2023-05-25T02:38:23.439Z,1019.14
2023-05-25T02:39:23.460Z,1019.14
2023-05-25T02:40:23.503Z,1019.11
2023-05-25T02:41:23.514Z,1019.08
2023-05-25T02:42:23.546Z,1019.12
2023-05-25T02:43:23.577Z,1019.08
2023-05-25T02:44:23.605Z,1019.09
2023-05-25T02:45:23.654Z,1019.09
2023-05-25T02:46:23.769Z,1019.10
2023-05-25T02:47:23.737Z,1019.04
2023-05-25T02:48:23.732Z,1019.07
2023-05-25T02:49:23.762Z,1019.05
2023-05-25T02:50:23.806Z,1019.08
2023-05-25T02:51:23.828Z,1019.07
2023-05-25T02:52:23.859Z,1019.10
2023-05-25T02:53:23.884Z,1019.06
2023-05-25T02:54:23.931Z,1019.05
2023-05-25T02:55:23.946Z,1019.06
2023-05-25T02:56:23.991Z,1019.07
2023-05-25T02:57:24.008Z,1019.04
2023-05-25T02:58:24.043Z,1019.03
2023-05-25T02:59:24.072Z,1019.04
2023-05-25T03:00:24.106Z,1019.08
2023-05-25T03:01:24.246Z,1019.04
2023-05-25T03:02:24.205Z,1019.07
2023-05-25T03:03:24.224Z,1019.06
2023-05-25T03:04:24.244Z,1019.04
2023-05-25T03:05:24.258Z,1019.04
2023-05-25T03:06:24.291Z,1019.06
2023-05-25T03:07:24.324Z,1019.03
2023-05-25T03:08:24.372Z,1019.05
2023-05-25T03:09:24.383Z,1019.07
2023-05-25T03:10:24.425Z,1019.03
2023-05-25T03:11:24.489Z,1019.02
2023-05-25T03:12:24.475Z,1019.02
2023-05-25T03:13:24.516Z,1019.01
2023-05-25T03:14:24.557Z,1019.01
2023-05-25T03:15:24.572Z,1019.02
2023-05-25T03:16:24.636Z,1019.02
2023-05-25T03:17:24.683Z,1019.02
2023-05-25T03:18:24.678Z,1019.06
2023-05-25T03:19:24.693Z,1019.10
2023-05-25T03:20:24.881Z,1019.09
2023-05-25T03:21:24.760Z,1019.11
2023-05-25T03:22:24.789Z,1019.10
2023-05-25T03:23:24.815Z,1019.10
2023-05-25T03:24:24.851Z,1019.12
2023-05-25T03:25:24.882Z,1019.12
2023-05-25T03:26:24.923Z,1019.15
2023-05-25T03:27:24.944Z,1019.16
2023-05-25T03:28:24.978Z,1019.15
2023-05-25T03:29:25.010Z,1019.15
2023-05-25T03:30:25.054Z,1019.14
2023-05-25T03:31:25.108Z,1019.14
2023-05-25T03:32:25.242Z,1019.18
2023-05-25T03:33:25.142Z,1019.13
2023-05-25T03:34:25.186Z,1019.15
2023-05-25T03:35:25.195Z,1019.21
2023-05-25T03:36:25.248Z,1019.22
2023-05-25T03:37:25.257Z,1019.18
2023-05-25T03:38:25.289Z,1019.18
2023-05-25T03:39:25.330Z,1019.17
2023-05-25T03:40:25.348Z,1019.17
2023-05-25T03:41:25.396Z,1019.20
2023-05-25T03:42:25.413Z,1019.19
2023-05-25T03:43:25.447Z,1019.20
2023-05-25T03:44:25.485Z,1019.17
2023-05-25T03:45:25.505Z,1019.17
2023-05-25T03:46:25.616Z,1019.18
2023-05-25T03:47:25.600Z,1019.16
2023-05-25T03:48:25.613Z,1019.17
2023-05-25T03:49:25.641Z,1019.18
2023-05-25T03:50:25.778Z,1019.19
2023-05-25T03:51:25.693Z,1019.20
2023-05-25T03:52:25.733Z,1019.24
2023-05-25T03:53:25.763Z,1019.21
2023-05-25T03:54:25.787Z,1019.22
2023-05-25T03:55:25.840Z,1019.26
2023-05-25T03:56:25.862Z,1019.27
2023-05-25T03:57:25.892Z,1019.27
2023-05-25T03:58:25.933Z,1019.32
2023-05-25T03:59:25.945Z,1019.34
2023-05-25T04:00:25.972Z,1019.38
2023-05-25T04:01:26.008Z,1019.38
2023-05-25T04:02:26.115Z,1019.42
2023-05-25T04:03:26.163Z,1019.44
2023-05-25T04:04:26.142Z,1019.39
2023-05-25T04:05:26.128Z,1019.44
2023-05-25T04:06:26.160Z,1019.43
2023-05-25T04:07:26.194Z,1019.43
2023-05-25T04:08:26.225Z,1019.46
2023-05-25T04:09:26.266Z,1019.48
2023-05-25T04:10:26.289Z,1019.45
2023-05-25T04:11:26.315Z,1019.49
2023-05-25T04:12:26.358Z,1019.53
2023-05-25T04:13:26.383Z,1019.52
2023-05-25T04:14:26.411Z,1019.55
2023-05-25T04:15:26.438Z,1019.50
2023-05-25T04:16:26.558Z,1019.51
2023-05-25T04:17:26.549Z,1019.50
2023-05-25T04:18:26.536Z,1019.51
2023-05-25T04:19:26.571Z,1019.49
2023-05-25T04:20:26.717Z,1019.47
2023-05-25T04:21:26.630Z,1019.49
2023-05-25T04:22:26.660Z,1019.49
2023-05-25T04:23:26.692Z,1019.49
2023-05-25T04:24:26.722Z,1019.53
2023-05-25T04:25:29.406Z,1019.58
2023-05-25T04:26:26.779Z,1019.55
2023-05-25T04:27:26.823Z,1019.54
2023-05-25T04:28:26.849Z,1019.59
2023-05-25T04:29:26.878Z,1019.62
2023-05-25T04:30:26.914Z,1019.62
2023-05-25T04:31:27.113Z,1019.62
2023-05-25T04:32:26.982Z,1019.65
2023-05-25T04:33:27.053Z,1019.61
2023-05-25T04:34:27.033Z,1019.62
2023-05-25T04:35:27.067Z,1019.62
2023-05-25T04:36:27.109Z,1019.64
2023-05-25T04:37:27.137Z,1019.60
2023-05-25T04:38:27.171Z,1019.61
2023-05-25T04:39:27.194Z,1019.56
2023-05-25T04:40:27.222Z,1019.59
2023-05-25T04:41:27.255Z,1019.61
2023-05-25T04:42:27.290Z,1019.65
2023-05-25T04:43:27.320Z,1019.62
2023-05-25T04:44:27.353Z,1019.66
2023-05-25T04:45:27.380Z,1019.70
2023-05-25T04:46:27.475Z,1019.67
2023-05-25T04:47:27.472Z,1019.71
2023-05-25T04:48:27.476Z,1019.66
2023-05-25T04:49:27.523Z,1019.66
2023-05-25T04:50:27.545Z,1019.65
2023-05-25T04:51:27.581Z,1019.62
2023-05-25T04:52:27.620Z,1019.62
2023-05-25T04:53:27.635Z,1019.60
2023-05-25T04:54:27.669Z,1019.60
2023-05-25T04:55:27.717Z,1019.57
2023-05-25T04:56:27.727Z,1019.57
2023-05-25T04:57:27.770Z,1019.60
2023-05-25T04:58:27.792Z,1019.55
2023-05-25T04:59:27.834Z,1019.56
2023-05-25T05:00:27.855Z,1019.61
2023-05-25T05:01:35.147Z,1019.56
2023-05-25T05:03:32.021Z,1019.61
2023-05-25T05:04:31.966Z,1019.60
2023-05-25T05:06:24.924Z,1019.61
2023-05-25T05:07:24.969Z,1019.62
2023-05-25T05:09:29.013Z,1019.66
2023-05-25T05:10:29.047Z,1019.62
2023-05-25T05:12:33.082Z,1019.63
2023-05-25T05:13:33.106Z,1019.61
2023-05-25T05:14:33.149Z,1019.55
2023-05-25T05:15:33.187Z,1019.53
2023-05-25T05:16:33.274Z,1019.51
2023-05-25T05:17:33.266Z,1019.53
2023-05-25T05:18:33.275Z,1019.54
2023-05-25T05:19:33.354Z,1019.56
2023-05-25T05:20:33.379Z,1019.56
2023-05-25T05:21:33.375Z,1019.60
2023-05-25T05:22:33.402Z,1019.63
2023-05-25T05:23:33.426Z,1019.62
2023-05-25T05:24:33.458Z,1019.66
2023-05-25T05:25:33.499Z,1019.67
2023-05-25T05:26:41.243Z,1019.68
2023-05-25T05:27:33.560Z,1019.67
2023-05-25T05:28:33.596Z,1019.70
2023-05-25T05:29:33.619Z,1019.70
2023-05-25T05:30:33.658Z,1019.71
2023-05-25T05:31:33.819Z,1019.73
2023-05-25T05:32:33.740Z,1019.76
2023-05-25T05:33:33.832Z,1019.75
2023-05-25T05:34:33.788Z,1019.78
2023-05-25T05:35:33.820Z,1019.79
2023-05-25T05:36:45.174Z,1019.76
2023-05-25T05:37:33.874Z,1019.82
2023-05-25T05:38:33.913Z,1019.81
2023-05-25T05:39:33.942Z,1019.80
2023-05-25T05:40:33.991Z,1019.82
2023-05-25T05:41:34.034Z,1019.83
2023-05-25T05:42:34.044Z,1019.83
2023-05-25T05:43:34.073Z,1019.86
2023-05-25T05:44:34.103Z,1019.88
2023-05-25T05:45:34.135Z,1019.86
2023-05-25T05:46:34.212Z,1019.86
2023-05-25T05:47:34.216Z,1019.85
2023-05-25T05:48:34.235Z,1019.84
2023-05-25T05:49:34.270Z,1019.86
2023-05-25T05:50:34.296Z,1019.87
2023-05-25T05:51:34.331Z,1019.86
2023-05-25T05:52:34.372Z,1019.83
2023-05-25T05:53:34.402Z,1019.85
2023-05-25T05:54:34.454Z,1019.86
2023-05-25T05:55:34.467Z,1019.87
2023-05-25T05:56:34.496Z,1019.86
2023-05-25T05:57:34.538Z,1019.85
2023-05-25T05:58:34.564Z,1019.84
2023-05-25T05:59:34.637Z,1019.89
2023-05-25T06:00:34.629Z,1019.84
2023-05-25T06:01:34.656Z,1019.90
2023-05-25T06:02:34.793Z,1019.92
2023-05-25T06:03:34.789Z,1019.93
2023-05-25T06:04:34.752Z,1019.94
2023-05-25T06:05:34.810Z,1020.00
2023-05-25T06:06:34.823Z,1019.97
2023-05-25T06:07:34.859Z,1019.98
2023-05-25T06:08:34.881Z,1020.01
2023-05-25T06:09:34.917Z,1019.97
2023-05-25T06:10:34.961Z,1020.01
2023-05-25T06:11:34.994Z,1019.99
2023-05-25T06:12:35.037Z,1020.00
2023-05-25T06:13:35.061Z,1020.01
2023-05-25T06:14:35.107Z,1020.00
2023-05-25T06:15:35.118Z,1020.02
2023-05-25T06:16:35.234Z,1020.01
2023-05-25T06:17:35.285Z,1020.04
2023-05-25T06:18:35.218Z,1020.02
2023-05-25T06:19:35.248Z,1020.05
2023-05-25T06:20:35.337Z,1020.05
2023-05-25T06:21:35.319Z,1020.01
2023-05-25T06:22:35.346Z,1020.03
2023-05-25T06:23:35.380Z,1020.06
2023-05-25T06:24:35.412Z,1020.06
2023-05-25T06:25:35.449Z,1020.03
2023-05-25T06:26:35.484Z,1020.05
2023-05-25T06:27:35.512Z,1020.08
2023-05-25T06:28:35.545Z,1020.06
2023-05-25T06:29:35.605Z,1020.10
2023-05-25T06:30:35.616Z,1020.09
2023-05-25T06:31:35.690Z,1020.11
2023-05-25T06:32:35.726Z,1020.07
2023-05-25T06:33:35.713Z,1020.06
2023-05-25T06:34:38.033Z,1020.02
2023-05-25T06:35:35.791Z,1020.03
2023-05-25T06:36:35.812Z,1020.08
2023-05-25T06:37:35.850Z,1020.10
2023-05-25T06:38:35.883Z,1020.11
2023-05-25T06:39:35.912Z,1020.15
2023-05-25T06:40:35.942Z,1020.16
2023-05-25T06:41:35.979Z,1020.08
2023-05-25T06:42:36.027Z,1020.13
2023-05-25T06:43:36.050Z,1020.12
2023-05-25T06:44:36.080Z,1020.12
2023-05-25T06:45:36.120Z,1020.13
2023-05-25T06:46:36.226Z,1020.15
2023-05-25T06:47:36.204Z,1020.14
2023-05-25T06:48:36.235Z,1020.19
2023-05-25T06:49:36.245Z,1020.18
2023-05-25T06:50:36.284Z,1020.16
2023-05-25T06:51:36.315Z,1020.17
2023-05-25T06:52:36.349Z,1020.15
2023-05-25T06:53:36.379Z,1020.17
2023-05-25T06:54:36.413Z,1020.23
2023-05-25T06:55:36.446Z,1020.15
2023-05-25T06:56:36.510Z,1020.13
2023-05-25T06:57:36.515Z,1020.19
2023-05-25T06:58:36.551Z,1020.17
2023-05-25T06:59:36.589Z,1020.15
2023-05-25T07:00:36.612Z,1020.15
2023-05-25T07:01:36.769Z,1020.12
2023-05-25T07:02:36.715Z,1020.14
2023-05-25T07:03:36.720Z,1020.15
2023-05-25T07:04:36.783Z,1020.16
2023-05-25T07:05:36.787Z,1020.13
2023-05-25T07:06:36.822Z,1020.15
2023-05-25T07:07:36.851Z,1020.21
2023-05-25T07:08:36.892Z,1020.19
2023-05-25T07:09:36.918Z,1020.15
2023-05-25T07:10:36.955Z,1020.21
2023-05-25T07:11:36.990Z,1020.23
2023-05-25T07:12:37.026Z,1020.22
2023-05-25T07:13:37.060Z,1020.23
2023-05-25T07:14:37.096Z,1020.21
2023-05-25T07:15:37.125Z,1020.18
2023-05-25T07:16:37.261Z,1020.21
2023-05-25T07:17:37.202Z,1020.16
2023-05-25T07:18:37.230Z,1020.16
2023-05-25T07:19:37.260Z,1020.16
2023-05-25T07:20:37.386Z,1020.19
2023-05-25T07:21:37.331Z,1020.18
2023-05-25T07:22:37.373Z,1020.21
2023-05-25T07:23:37.411Z,1020.20
2023-05-25T07:24:37.433Z,1020.23
2023-05-25T07:25:37.466Z,1020.24
2023-05-25T07:26:37.500Z,1020.25
2023-05-25T07:27:37.544Z,1020.22
2023-05-25T07:28:37.570Z,1020.27
2023-05-25T07:29:37.607Z,1020.24
2023-05-25T07:30:37.639Z,1020.25
2023-05-25T07:31:37.687Z,1020.27
2023-05-25T07:32:37.733Z,1020.28
2023-05-25T07:33:37.749Z,1020.25
2023-05-25T07:34:37.800Z,1020.27
2023-05-25T07:35:37.812Z,1020.28
2023-05-25T07:36:37.847Z,1020.27
2023-05-25T07:37:37.887Z,1020.30
2023-05-25T07:38:37.914Z,1020.25
2023-05-25T07:39:37.956Z,1020.27
2023-05-25T07:40:37.999Z,1020.27
2023-05-25T07:41:38.020Z,1020.32
2023-05-25T07:42:38.059Z,1020.33
2023-05-25T07:43:38.099Z,1020.37
2023-05-25T07:44:38.145Z,1020.40
2023-05-25T07:45:38.174Z,1020.39
2023-05-25T07:46:38.205Z,1020.36
2023-05-25T07:47:38.248Z,1020.38
2023-05-25T07:48:38.264Z,1020.37
2023-05-25T07:49:38.310Z,1020.40
2023-05-25T07:50:38.330Z,1020.39
2023-05-25T07:51:38.362Z,1020.38
2023-05-25T07:52:38.423Z,1020.39
2023-05-25T07:53:38.436Z,1020.45
2023-05-25T07:54:38.494Z,1020.42
2023-05-25T07:55:38.513Z,1020.43
2023-05-25T07:56:38.536Z,1020.40
2023-05-25T07:57:38.581Z,1020.40
2023-05-25T07:58:38.620Z,1020.44
2023-05-25T07:59:38.641Z,1020.43
2023-05-25T08:00:38.687Z,1020.40
2023-05-25T08:01:38.717Z,1020.45
2023-05-25T08:02:38.848Z,1020.44
2023-05-25T08:03:48.854Z,1020.44
2023-05-25T08:04:38.937Z,1020.43
2023-05-25T08:05:38.858Z,1020.46
2023-05-25T08:06:38.886Z,1020.48
2023-05-25T08:07:40.654Z,1020.51
2023-05-25T08:08:38.965Z,1020.48
2023-05-25T08:09:39.008Z,1020.48
2023-05-25T08:10:39.026Z,1020.45
2023-05-25T08:11:39.062Z,1020.50
2023-05-25T08:12:47.712Z,1020.45
2023-05-25T08:13:39.150Z,1020.48
2023-05-25T08:14:39.168Z,1020.45
2023-05-25T08:15:39.204Z,1020.45
2023-05-25T08:16:39.268Z,1020.45
2023-05-25T08:17:39.293Z,1020.49
2023-05-25T08:18:39.325Z,1020.47
2023-05-25T08:19:39.344Z,1020.45
2023-05-25T08:20:39.428Z,1020.45
2023-05-25T08:21:39.414Z,1020.42
2023-05-25T08:22:39.462Z,1020.43
2023-05-25T08:23:39.481Z,1020.42
2023-05-25T08:24:39.521Z,1020.44
2023-05-25T08:25:39.563Z,1020.44
2023-05-25T08:26:53.335Z,1020.44
2023-05-25T08:27:39.627Z,1020.40
2023-05-25T08:28:39.668Z,1020.45
2023-05-25T08:29:39.737Z,1020.44
2023-05-25T08:30:39.798Z,1020.43
2023-05-25T08:31:39.813Z,1020.48
2023-05-25T08:32:39.821Z,1020.47
2023-05-25T08:33:39.840Z,1020.47
2023-05-25T08:34:39.877Z,1020.44
2023-05-25T08:35:39.917Z,1020.45
2023-05-25T08:36:39.945Z,1020.45
2023-05-25T08:37:39.996Z,1020.44
2023-05-25T08:38:40.031Z,1020.45
2023-05-25T08:39:40.054Z,1020.44
2023-05-25T08:40:40.097Z,1020.45
2023-05-25T08:41:40.152Z,1020.42
2023-05-25T08:42:40.202Z,1020.45
2023-05-25T08:43:40.201Z,1020.48
2023-05-25T08:44:40.241Z,1020.42
2023-05-25T08:45:45.171Z,1020.43
2023-05-25T08:46:40.316Z,1020.41
2023-05-25T08:47:40.435Z,1020.36
2023-05-25T08:48:42.445Z,1020.45
2023-05-25T08:49:40.557Z,1020.46
2023-05-25T08:50:40.450Z,1020.40
2023-05-25T08:51:40.492Z,1020.47
2023-05-25T08:52:40.542Z,1020.46
2023-05-25T08:53:40.615Z,1020.47
2023-05-25T08:54:40.598Z,1020.51
2023-05-25T08:55:40.633Z,1020.52
2023-05-25T08:56:40.672Z,1020.48
2023-05-25T08:57:40.704Z,1020.53
2023-05-25T08:58:40.757Z,1020.52
2023-05-25T08:59:40.775Z,1020.52
2023-05-25T09:00:40.842Z,1020.54
2023-05-25T09:01:40.906Z,1020.50
2023-05-25T09:02:40.904Z,1020.52
2023-05-25T09:03:41.046Z,1020.55
2023-05-25T09:04:40.960Z,1020.49
2023-05-25T09:05:40.999Z,1020.58
2023-05-25T09:06:41.035Z,1020.50
2023-05-25T09:07:41.064Z,1020.50
2023-05-25T09:08:41.100Z,1020.47
2023-05-25T09:09:41.151Z,1020.47
2023-05-25T09:10:41.177Z,1020.51
2023-05-25T09:11:42.810Z,1020.50
2023-05-25T09:12:41.252Z,1020.52
2023-05-25T09:13:41.297Z,1020.51
2023-05-25T09:14:41.327Z,1020.48
2023-05-25T09:15:41.570Z,1020.48
2023-05-25T09:16:41.428Z,1020.48
2023-05-25T09:17:41.679Z,1020.48
2023-05-25T09:18:41.487Z,1020.52
2023-05-25T09:19:41.514Z,1020.54
2023-05-25T09:20:44.211Z,1020.53
2023-05-25T09:21:41.583Z,1020.56
2023-05-25T09:22:41.624Z,1020.61
2023-05-25T09:23:41.656Z,1020.59
2023-05-25T09:24:41.709Z,1020.60
2023-05-25T09:25:41.738Z,1020.57
2023-05-25T09:26:41.769Z,1020.61
2023-05-25T09:27:41.810Z,1020.60
2023-05-25T09:28:41.845Z,1020.61
2023-05-25T09:29:41.881Z,1020.61
2023-05-25T09:30:42.060Z,1020.60
2023-05-25T09:31:41.980Z,1020.64
2023-05-25T09:32:42.039Z,1020.68
2023-05-25T09:33:42.030Z,1020.70
2023-05-25T09:34:42.069Z,1020.70
2023-05-25T09:35:42.105Z,1020.73
2023-05-25T09:36:42.241Z,1020.72
2023-05-25T09:37:42.325Z,1020.72
2023-05-25T09:38:42.374Z,1020.70
2023-05-25T09:39:42.322Z,1020.68
2023-05-25T09:40:42.389Z,1020.71
2023-05-25T09:41:42.335Z,1020.67
2023-05-25T09:42:42.373Z,1020.64
2023-05-25T09:43:46.976Z,1020.70
2023-05-25T09:44:42.448Z,1020.67
2023-05-25T09:45:42.495Z,1020.77
2023-05-25T09:46:42.689Z,1020.70
2023-05-25T09:47:42.651Z,1020.71
2023-05-25T09:48:42.589Z,1020.71
2023-05-25T09:49:42.629Z,1020.69
2023-05-25T09:50:42.761Z,1020.70
2023-05-25T09:51:42.702Z,1020.73
2023-05-25T09:52:42.751Z,1020.73
2023-05-25T09:53:42.783Z,1020.71
2023-05-25T09:54:42.811Z,1020.77
2023-05-25T09:55:53.019Z,1020.70
2023-05-25T09:56:42.908Z,1020.74
2023-05-25T09:57:42.930Z,1020.77
2023-05-25T09:58:42.960Z,1020.72
2023-05-25T09:59:43.003Z,1020.72
2023-05-25T10:00:43.244Z,1020.71
2023-05-25T10:01:44.123Z,1020.73
2023-05-25T10:02:43.169Z,1020.74
2023-05-25T10:03:46.061Z,1020.77
2023-05-25T10:04:43.220Z,1020.72
2023-05-25T10:05:43.221Z,1020.78
2023-05-25T10:06:43.260Z,1020.74
2023-05-25T10:07:43.296Z,1020.79
2023-05-25T10:08:43.331Z,1020.79
2023-05-25T10:09:43.378Z,1020.88
2023-05-25T10:10:43.700Z,1020.81
2023-05-25T10:11:43.479Z,1020.81
2023-05-25T10:12:43.477Z,1020.79
2023-05-25T10:13:43.521Z,1020.82
2023-05-25T10:14:43.569Z,1020.77
2023-05-25T10:15:43.633Z,1020.77
2023-05-25T10:16:43.639Z,1020.80
2023-05-25T10:17:43.694Z,1020.76
2023-05-25T10:18:43.707Z,1020.76
2023-05-25T10:19:43.748Z,1020.82
2023-05-25T10:20:43.845Z,1020.78
2023-05-25T10:21:43.814Z,1020.80
2023-05-25T10:22:43.853Z,1020.78
2023-05-25T10:23:43.890Z,1020.79
2023-05-25T10:24:43.931Z,1020.80
2023-05-25T10:25:43.993Z,1020.80
2023-05-25T10:26:44.004Z,1020.82
2023-05-25T10:27:44.045Z,1020.86
2023-05-25T10:28:44.079Z,1020.86
2023-05-25T10:29:44.155Z,1020.87
2023-05-25T10:30:44.152Z,1020.88
2023-05-25T10:31:44.216Z,1020.89
2023-05-25T10:32:44.277Z,1020.89
2023-05-25T10:33:47.519Z,1020.90
2023-05-25T10:34:44.301Z,1020.91
2023-05-25T10:36:01.362Z,1020.88
2023-05-25T10:36:44.373Z,1020.87
2023-05-25T10:37:44.412Z,1020.88
2023-05-25T10:38:44.451Z,1020.90
2023-05-25T10:39:44.487Z,1020.86
2023-05-25T10:40:44.531Z,1020.84
2023-05-25T10:41:44.560Z,1020.80
2023-05-25T10:42:44.600Z,1020.78
2023-05-25T10:43:44.636Z,1020.75
2023-05-25T10:44:44.675Z,1020.77
2023-05-25T10:45:44.947Z,1020.79
2023-05-25T10:46:44.862Z,1020.77
2023-05-25T10:47:44.798Z,1020.79
2023-05-25T10:48:44.831Z,1020.79
2023-05-25T10:49:44.865Z,1020.80
2023-05-25T10:50:44.915Z,1020.83
2023-05-25T10:51:44.941Z,1020.74
2023-05-25T10:52:44.989Z,1020.78
2023-05-25T10:53:45.017Z,1020.78
2023-05-25T10:54:45.056Z,1020.83
2023-05-25T10:55:45.381Z,1020.82
2023-05-25T10:56:46.344Z,1020.70
2023-05-25T10:57:45.176Z,1020.73
2023-05-25T10:58:45.219Z,1020.73
2023-05-25T10:59:45.244Z,1020.71
2023-05-25T11:00:45.331Z,1020.65
2023-05-25T11:01:45.440Z,1020.62
2023-05-25T11:02:45.401Z,1020.60
2023-05-25T11:03:45.619Z,1020.66
2023-05-25T11:04:45.483Z,1020.63
2023-05-25T11:05:45.900Z,1020.66
2023-05-25T11:06:45.539Z,1020.67
2023-05-25T11:07:45.551Z,1020.67
2023-05-25T11:08:45.583Z,1020.70
2023-05-25T11:09:45.620Z,1020.74
2023-05-25T11:10:45.664Z,1020.69
2023-05-25T11:11:45.691Z,1020.68
2023-05-25T11:12:45.731Z,1020.62
2023-05-25T11:13:45.769Z,1020.63
2023-05-25T11:14:45.811Z,1020.67
2023-05-25T11:15:46.059Z,1020.66
2023-05-25T11:16:45.899Z,1020.65
2023-05-25T11:17:46.047Z,1020.67
2023-05-25T11:18:45.972Z,1020.62
2023-05-25T11:19:47.756Z,1020.66
2023-05-25T11:20:46.064Z,1020.67
2023-05-25T11:21:53.243Z,1020.65
2023-05-25T11:23:39.123Z,1020.67
2023-05-25T11:24:39.148Z,1020.68
2023-05-25T11:26:32.113Z,1020.70
2023-05-25T11:27:32.205Z,1020.71
2023-05-25T11:29:47.290Z,1020.72
2023-05-25T11:30:47.403Z,1020.71
2023-05-25T11:32:51.434Z,1020.79
2023-05-25T11:33:51.415Z,1020.74
2023-05-25T11:35:44.980Z,1020.74
2023-05-25T11:36:44.619Z,1020.74
2023-05-25T11:39:02.470Z,1020.73
2023-05-25T11:39:48.725Z,1020.72
2023-05-25T11:41:52.835Z,1020.71
2023-05-25T11:42:52.841Z,1020.70
2023-05-25T11:44:56.904Z,1020.72
2023-05-25T11:45:56.985Z,1020.73
2023-05-25T11:48:01.026Z,1020.66
2023-05-25T11:49:01.033Z,1020.71
2023-05-25T11:51:05.077Z,1020.72
2023-05-25T11:52:05.110Z,1020.69
2023-05-25T11:53:58.127Z,1020.75
2023-05-25T11:54:58.132Z,1020.78
2023-05-25T11:56:51.158Z,1020.71
2023-05-25T11:57:51.177Z,1020.66
2023-05-25T11:59:55.300Z,1020.67
2023-05-25T12:00:55.299Z,1020.69
2023-05-25T12:02:59.452Z,1020.68
2023-05-25T12:03:59.547Z,1020.68
2023-05-25T12:05:52.575Z,1020.64
2023-05-25T12:06:52.567Z,1020.68
2023-05-25T12:08:56.664Z,1020.65
2023-05-25T12:09:56.667Z,1020.60
2023-05-25T12:11:49.895Z,1020.63
2023-05-25T12:12:49.925Z,1020.60
2023-05-25T12:13:49.967Z,1020.59
2023-05-25T12:14:50.055Z,1020.65
2023-05-25T12:15:50.053Z,1020.60
2023-05-25T12:16:50.129Z,1020.66
2023-05-25T12:17:50.192Z,1020.64
2023-05-25T12:18:50.161Z,1020.64
2023-05-25T12:19:50.255Z,1020.64
2023-05-25T12:20:50.309Z,1020.65
2023-05-25T12:21:50.270Z,1020.67
2023-05-25T12:22:50.313Z,1020.65
2023-05-25T12:23:50.350Z,1020.69
2023-05-25T12:24:50.388Z,1020.64
2023-05-25T12:25:51.384Z,1020.65
2023-05-25T12:26:50.472Z,1020.65